sensor_id;sensor_type;location;lat;lon;timestamp;pressure;altitude;pressure_sealevel;temperature;humidity
9423;BME280;65863;49.506;10.400;2024-02-21T00:01:07;98922.34;;;6.17;89.41
9423;BME280;65863;49.506;10.400;2024-02-21T00:03:51;98901.00;;;6.03;89.50
9423;BME280;65863;49.506;10.400;2024-02-21T00:06:37;98897.47;;;6.08;89.14
9423;BME280;65863;49.506;10.400;2024-02-21T00:09:21;98876.16;;;6.05;89.55
9423;BME280;65863;49.506;10.400;2024-02-21T00:12:05;98881.50;;;6.09;89.49
9423;BME280;65863;49.506;10.400;2024-02-21T00:14:49;98880.25;;;6.10;89.89
9423;BME280;65863;49.506;10.400;2024-02-21T00:17:33;98905.13;;;6.25;89.99
9423;BME280;65863;49.506;10.400;2024-02-21T00:20:18;98852.53;;;5.95;89.80
9423;BME280;65863;49.506;10.400;2024-02-21T00:23:02;98890.13;;;6.16;90.30
9423;BME280;65863;49.506;10.400;2024-02-21T00:25:46;98866.31;;;6.10;90.03
9423;BME280;65863;49.506;10.400;2024-02-21T00:28:30;98874.41;;;6.08;90.00
9423;BME280;65863;49.506;10.400;2024-02-21T00:31:14;98882.78;;;6.13;90.05
9423;BME280;65863;49.506;10.400;2024-02-21T00:34:02;98877.47;;;6.15;90.46
9423;BME280;65863;49.506;10.400;2024-02-21T00:36:46;98858.19;;;6.06;90.62
9423;BME280;65863;49.506;10.400;2024-02-21T00:39:30;98878.25;;;6.22;90.58
9423;BME280;65863;49.506;10.400;2024-02-21T00:42:14;98840.19;;;6.07;89.78
9423;BME280;65863;49.506;10.400;2024-02-21T00:44:59;98836.63;;;6.07;89.80
9423;BME280;65863;49.506;10.400;2024-02-21T00:47:43;98851.09;;;6.11;90.07
9423;BME280;65863;49.506;10.400;2024-02-21T00:50:26;98828.53;;;6.03;90.06
9423;BME280;65863;49.506;10.400;2024-02-21T00:53:10;98824.41;;;5.93;90.51
9423;BME280;65863;49.506;10.400;2024-02-21T00:55:55;98844.16;;;5.89;91.12
9423;BME280;65863;49.506;10.400;2024-02-21T00:58:40;98833.06;;;6.00;90.64
9423;BME280;65863;49.506;10.400;2024-02-21T01:01:25;98801.81;;;5.85;91.23
9423;BME280;65863;49.506;10.400;2024-02-21T01:04:09;98854.16;;;6.18;90.38
9423;BME280;65863;49.506;10.400;2024-02-21T01:06:54;98809.44;;;5.90;90.74
9423;BME280;65863;49.506;10.400;2024-02-21T01:09:38;98804.63;;;5.91;91.14
9423;BME280;65863;49.506;10.400;2024-02-21T01:12:23;98817.38;;;6.09;90.69
9423;BME280;65863;49.506;10.400;2024-02-21T01:15:07;98768.84;;;5.72;90.45
9423;BME280;65863;49.506;10.400;2024-02-21T01:17:52;98799.56;;;5.95;90.36
9423;BME280;65863;49.506;10.400;2024-02-21T01:20:38;98818.13;;;6.09;90.67
9423;BME280;65863;49.506;10.400;2024-02-21T01:23:22;98808.00;;;6.06;90.34
9423;BME280;65863;49.506;10.400;2024-02-21T01:26:06;98824.75;;;6.17;90.60
9423;BME280;65863;49.506;10.400;2024-02-21T01:28:52;98806.75;;;6.07;90.75
9423;BME280;65863;49.506;10.400;2024-02-21T01:31:36;98800.38;;;6.07;90.65
9423;BME280;65863;49.506;10.400;2024-02-21T01:34:20;98813.88;;;6.14;91.08
9423;BME280;65863;49.506;10.400;2024-02-21T01:37:04;98821.72;;;6.15;91.21
9423;BME280;65863;49.506;10.400;2024-02-21T01:39:51;98810.81;;;6.17;91.33
9423;BME280;65863;49.506;10.400;2024-02-21T01:42:39;98810.56;;;6.21;91.42
9423;BME280;65863;49.506;10.400;2024-02-21T01:45:27;98799.66;;;6.12;90.96
9423;BME280;65863;49.506;10.400;2024-02-21T01:48:11;98745.28;;;5.62;91.41
9423;BME280;65863;49.506;10.400;2024-02-21T01:50:56;98781.88;;;5.98;91.52
9423;BME280;65863;49.506;10.400;2024-02-21T01:53:43;98804.72;;;6.19;91.35
9423;BME280;65863;49.506;10.400;2024-02-21T01:56:29;98789.50;;;6.03;91.38
9423;BME280;65863;49.506;10.400;2024-02-21T01:59:15;98805.50;;;6.14;91.79
9423;BME280;65863;49.506;10.400;2024-02-21T02:02:00;98767.19;;;6.03;91.53
9423;BME280;65863;49.506;10.400;2024-02-21T02:04:44;98796.84;;;6.12;91.80
9423;BME280;65863;49.506;10.400;2024-02-21T02:07:29;98768.91;;;5.95;91.51
9423;BME280;65863;49.506;10.400;2024-02-21T02:10:14;98688.97;;;5.35;91.96
9423;BME280;65863;49.506;10.400;2024-02-21T02:12:58;98781.31;;;5.94;91.92
9423;BME280;65863;49.506;10.400;2024-02-21T02:15:46;98771.97;;;5.91;91.65
9423;BME280;65863;49.506;10.400;2024-02-21T02:18:31;98786.97;;;6.05;91.47
9423;BME280;65863;49.506;10.400;2024-02-21T02:21:39;98776.81;;;6.02;91.74
9423;BME280;65863;49.506;10.400;2024-02-21T02:24:25;98729.88;;;5.78;90.58
9423;BME280;65863;49.506;10.400;2024-02-21T02:27:10;98740.78;;;5.81;91.75
9423;BME280;65863;49.506;10.400;2024-02-21T02:29:54;98734.72;;;5.89;90.73
9423;BME280;65863;49.506;10.400;2024-02-21T02:32:38;98734.19;;;5.84;91.13
9423;BME280;65863;49.506;10.400;2024-02-21T02:35:23;98728.63;;;5.84;91.18
9423;BME280;65863;49.506;10.400;2024-02-21T02:38:07;98755.53;;;5.99;91.46
9423;BME280;65863;49.506;10.400;2024-02-21T02:40:51;98726.09;;;5.92;90.93
9423;BME280;65863;49.506;10.400;2024-02-21T02:43:35;98721.53;;;5.95;90.70
9423;BME280;65863;49.506;10.400;2024-02-21T02:46:20;98721.78;;;5.85;90.55
9423;BME280;65863;49.506;10.400;2024-02-21T02:49:04;98704.53;;;5.70;90.55
9423;BME280;65863;49.506;10.400;2024-02-21T02:51:48;98721.53;;;5.89;90.76
9423;BME280;65863;49.506;10.400;2024-02-21T02:54:32;98723.81;;;5.85;90.90
9423;BME280;65863;49.506;10.400;2024-02-21T02:57:18;98741.09;;;6.06;90.69
9423;BME280;65863;49.506;10.400;2024-02-21T03:00:04;98742.84;;;5.98;90.77
9423;BME280;65863;49.506;10.400;2024-02-21T03:02:50;98724.59;;;5.85;90.66
9423;BME280;65863;49.506;10.400;2024-02-21T03:05:34;98688.59;;;5.76;90.67
9423;BME280;65863;49.506;10.400;2024-02-21T03:08:18;98709.66;;;5.94;90.53
9423;BME280;65863;49.506;10.400;2024-02-21T03:11:03;98719.81;;;6.03;90.20
9423;BME280;65863;49.506;10.400;2024-02-21T03:13:47;98727.44;;;6.08;90.39
9423;BME280;65863;49.506;10.400;2024-02-21T03:16:31;98696.44;;;5.89;90.87
9423;BME280;65863;49.506;10.400;2024-02-21T03:19:17;98726.66;;;6.25;90.97
9423;BME280;65863;49.506;10.400;2024-02-21T03:22:02;98703.09;;;6.03;91.61
9423;BME280;65863;49.506;10.400;2024-02-21T03:24:45;98696.72;;;5.97;92.29
9423;BME280;65863;49.506;10.400;2024-02-21T03:27:29;98692.69;;;5.98;92.99
9423;BME280;65863;49.506;10.400;2024-02-21T03:30:13;98696.97;;;5.93;93.93
9423;BME280;65863;49.506;10.400;2024-02-21T03:32:57;98695.19;;;5.96;94.50
9423;BME280;65863;49.506;10.400;2024-02-21T03:35:41;98697.47;;;5.86;95.54
9423;BME280;65863;49.506;10.400;2024-02-21T03:38:26;98696.72;;;5.91;95.94
9423;BME280;65863;49.506;10.400;2024-02-21T03:41:10;98691.88;;;5.86;96.23
9423;BME280;65863;49.506;10.400;2024-02-21T03:43:55;98705.09;;;5.97;96.40
9423;BME280;65863;49.506;10.400;2024-02-21T03:46:39;98699.00;;;5.87;97.08
9423;BME280;65863;49.506;10.400;2024-02-21T03:49:23;98699.22;;;5.83;97.46
9423;BME280;65863;49.506;10.400;2024-02-21T03:52:08;98706.84;;;5.89;98.04
9423;BME280;65863;49.506;10.400;2024-02-21T03:54:53;98696.19;;;5.81;98.07
9423;BME280;65863;49.506;10.400;2024-02-21T03:57:39;98684.53;;;5.77;98.47
9423;BME280;65863;49.506;10.400;2024-02-21T04:00:23;98662.75;;;5.64;98.84
9423;BME280;65863;49.506;10.400;2024-02-21T04:03:07;98665.25;;;5.62;98.96
9423;BME280;65863;49.506;10.400;2024-02-21T04:05:51;98685.06;;;5.93;98.62
9423;BME280;65863;49.506;10.400;2024-02-21T04:08:35;98677.97;;;5.86;98.59
9423;BME280;65863;49.506;10.400;2024-02-21T04:11:19;98671.63;;;5.85;98.54
9423;BME280;65863;49.506;10.400;2024-02-21T04:14:03;98626.47;;;5.36;98.77
9423;BME280;65863;49.506;10.400;2024-02-21T04:16:47;98660.97;;;5.78;98.32
9423;BME280;65863;49.506;10.400;2024-02-21T04:19:32;98612.59;;;5.59;97.44
9423;BME280;65863;49.506;10.400;2024-02-21T04:22:17;98664.03;;;5.92;97.36
9423;BME280;65863;49.506;10.400;2024-02-21T04:25:02;98609.03;;;5.52;96.58
9423;BME280;65863;49.506;10.400;2024-02-21T04:27:46;98636.38;;;5.71;96.75
9423;BME280;65863;49.506;10.400;2024-02-21T04:30:30;98662.00;;;5.86;96.60
9423;BME280;65863;49.506;10.400;2024-02-21T04:33:14;98652.88;;;5.80;96.78
9423;BME280;65863;49.506;10.400;2024-02-21T04:35:58;98666.06;;;5.91;96.91
9423;BME280;65863;49.506;10.400;2024-02-21T04:38:45;98653.38;;;5.73;96.79
9423;BME280;65863;49.506;10.400;2024-02-21T04:41:30;98624.72;;;5.50;97.47
9423;BME280;65863;49.506;10.400;2024-02-21T04:44:14;98671.38;;;5.83;97.70
9423;BME280;65863;49.506;10.400;2024-02-21T04:46:59;98661.22;;;5.69;97.69
9423;BME280;65863;49.506;10.400;2024-02-21T04:49:43;98590.75;;;5.23;97.48
9423;BME280;65863;49.506;10.400;2024-02-21T04:52:27;98631.81;;;5.51;97.70
9423;BME280;65863;49.506;10.400;2024-02-21T04:55:11;98634.09;;;5.64;97.91
9423;BME280;65863;49.506;10.400;2024-02-21T04:57:55;98652.88;;;5.69;97.38
9423;BME280;65863;49.506;10.400;2024-02-21T05:00:39;98630.81;;;5.60;97.62
9423;BME280;65863;49.506;10.400;2024-02-21T05:03:24;98618.16;;;5.47;97.70
9423;BME280;65863;49.506;10.400;2024-02-21T05:06:08;98614.06;;;5.37;98.09
9423;BME280;65863;49.506;10.400;2024-02-21T05:08:52;98622.44;;;5.48;98.33
9423;BME280;65863;49.506;10.400;2024-02-21T05:11:36;98639.44;;;5.62;98.08
9423;BME280;65863;49.506;10.400;2024-02-21T05:14:21;98620.88;;;5.30;98.51
9423;BME280;65863;49.506;10.400;2024-02-21T05:17:06;98617.88;;;5.45;98.50
9423;BME280;65863;49.506;10.400;2024-02-21T05:19:49;98611.53;;;5.39;98.30
9423;BME280;65863;49.506;10.400;2024-02-21T05:22:34;98626.22;;;5.45;97.91
9423;BME280;65863;49.506;10.400;2024-02-21T05:25:18;98634.34;;;5.49;98.09
9423;BME280;65863;49.506;10.400;2024-02-21T05:28:02;98624.22;;;5.40;98.16
9423;BME280;65863;49.506;10.400;2024-02-21T05:30:47;98606.69;;;5.28;98.43
9423;BME280;65863;49.506;10.400;2024-02-21T05:33:31;98612.78;;;5.32;98.47
9423;BME280;65863;49.506;10.400;2024-02-21T05:36:14;98581.03;;;4.96;98.44
9423;BME280;65863;49.506;10.400;2024-02-21T05:38:59;98609.97;;;5.15;99.12
9423;BME280;65863;49.506;10.400;2024-02-21T05:41:43;98612.22;;;5.11;98.75
9423;BME280;65863;49.506;10.400;2024-02-21T05:44:27;98611.34;;;4.82;99.70
9423;BME280;65863;49.506;10.400;2024-02-21T05:47:12;98616.72;;;4.97;99.31
9423;BME280;65863;49.506;10.400;2024-02-21T05:49:58;98630.94;;;5.05;99.56
9423;BME280;65863;49.506;10.400;2024-02-21T05:52:43;98624.81;;;4.95;99.47
9423;BME280;65863;49.506;10.400;2024-02-21T05:55:27;98603.28;;;4.90;99.26
9423;BME280;65863;49.506;10.400;2024-02-21T05:58:11;98604.78;;;4.86;99.37
9423;BME280;65863;49.506;10.400;2024-02-21T06:00:57;98601.03;;;5.00;98.98
9423;BME280;65863;49.506;10.400;2024-02-21T06:03:41;98604.34;;;5.04;99.10
9423;BME280;65863;49.506;10.400;2024-02-21T06:06:25;98567.38;;;4.87;98.33
9423;BME280;65863;49.506;10.400;2024-02-21T06:09:09;98604.66;;;5.17;98.71
9423;BME280;65863;49.506;10.400;2024-02-21T06:11:53;98602.09;;;5.14;98.59
9423;BME280;65863;49.506;10.400;2024-02-21T06:14:37;98610.25;;;5.23;98.51
9423;BME280;65863;49.506;10.400;2024-02-21T06:17:23;98618.38;;;5.44;97.44
9423;BME280;65863;49.506;10.400;2024-02-21T06:20:07;98602.41;;;5.44;96.99
9423;BME280;65863;49.506;10.400;2024-02-21T06:22:53;98595.34;;;5.38;96.90
9423;BME280;65863;49.506;10.400;2024-02-21T06:25:38;98597.34;;;5.37;97.05
9423;BME280;65863;49.506;10.400;2024-02-21T06:28:22;98586.97;;;5.32;96.81
9423;BME280;65863;49.506;10.400;2024-02-21T06:31:09;98576.34;;;5.30;96.37
9423;BME280;65863;49.506;10.400;2024-02-21T06:33:53;98580.63;;;5.26;96.61
9423;BME280;65863;49.506;10.400;2024-02-21T06:36:37;98563.66;;;5.12;97.26
9423;BME280;65863;49.506;10.400;2024-02-21T06:39:21;98564.16;;;5.11;97.04
9423;BME280;65863;49.506;10.400;2024-02-21T06:42:07;98561.56;;;4.96;96.97
9423;BME280;65863;49.506;10.400;2024-02-21T06:44:51;98599.06;;;5.12;97.57
9423;BME280;65863;49.506;10.400;2024-02-21T06:47:36;98529.78;;;4.42;98.12
9423;BME280;65863;49.506;10.400;2024-02-21T06:50:21;98585.06;;;4.83;99.03
9423;BME280;65863;49.506;10.400;2024-02-21T06:53:05;98611.94;;;4.98;99.16
9423;BME280;65863;49.506;10.400;2024-02-21T06:55:49;98608.66;;;5.05;98.45
9423;BME280;65863;49.506;10.400;2024-02-21T06:58:33;98605.56;;;4.92;98.28
9423;BME280;65863;49.506;10.400;2024-02-21T07:01:17;98604.34;;;5.04;97.27
9423;BME280;65863;49.506;10.400;2024-02-21T07:04:01;98581.56;;;5.00;96.56
9423;BME280;65863;49.506;10.400;2024-02-21T07:06:45;98618.34;;;5.32;96.55
9423;BME280;65863;49.506;10.400;2024-02-21T07:09:29;98580.63;;;5.31;95.57
9423;BME280;65863;49.506;10.400;2024-02-21T07:12:15;98601.16;;;5.45;94.66
9423;BME280;65863;49.506;10.400;2024-02-21T07:14:59;98596.63;;;5.65;94.24
9423;BME280;65863;49.506;10.400;2024-02-21T07:17:43;98557.13;;;5.55;93.42
9423;BME280;65863;49.506;10.400;2024-02-21T07:20:27;98560.19;;;5.74;92.71
9423;BME280;65863;49.506;10.400;2024-02-21T07:23:12;98565.25;;;5.98;91.27
9423;BME280;65863;49.506;10.400;2024-02-21T07:25:56;98559.41;;;6.02;91.77
9423;BME280;65863;49.506;10.400;2024-02-21T07:28:40;98540.16;;;5.93;92.18
9423;BME280;65863;49.506;10.400;2024-02-21T07:31:24;98558.66;;;5.96;92.37
9423;BME280;65863;49.506;10.400;2024-02-21T07:34:10;98572.31;;;6.16;91.40
9423;BME280;65863;49.506;10.400;2024-02-21T07:36:54;98586.75;;;6.32;90.06
9423;BME280;65863;49.506;10.400;2024-02-21T07:39:40;98589.28;;;6.35;89.47
9423;BME280;65863;49.506;10.400;2024-02-21T07:42:25;98587.78;;;6.17;90.20
9423;BME280;65863;49.506;10.400;2024-02-21T07:45:09;98568.25;;;6.29;89.77
9423;BME280;65863;49.506;10.400;2024-02-21T07:47:54;98543.94;;;6.18;88.99
9423;BME280;65863;49.506;10.400;2024-02-21T07:50:38;98557.31;;;6.42;87.87
9423;BME280;65863;49.506;10.400;2024-02-21T07:53:22;98519.31;;;6.28;88.91
9423;BME280;65863;49.506;10.400;2024-02-21T07:56:06;98560.00;;;6.70;87.46
9423;BME280;65863;49.506;10.400;2024-02-21T07:58:50;98551.50;;;6.99;86.71
9423;BME280;65863;49.506;10.400;2024-02-21T08:01:34;98486.97;;;6.72;85.87
9423;BME280;65863;49.506;10.400;2024-02-21T08:04:19;98525.22;;;7.24;83.95
9423;BME280;65863;49.506;10.400;2024-02-21T08:07:03;98480.88;;;6.68;83.25
9423;BME280;65863;49.506;10.400;2024-02-21T08:09:48;98557.34;;;6.95;85.43
9423;BME280;65863;49.506;10.400;2024-02-21T08:12:33;98545.91;;;6.99;84.33
9423;BME280;65863;49.506;10.400;2024-02-21T08:15:18;98551.22;;;7.02;84.93
9423;BME280;65863;49.506;10.400;2024-02-21T08:18:02;98534.16;;;7.17;84.20
9423;BME280;65863;49.506;10.400;2024-02-21T08:20:47;98538.41;;;7.24;83.19
9423;BME280;65863;49.506;10.400;2024-02-21T08:23:31;98534.53;;;7.33;82.31
9423;BME280;65863;49.506;10.400;2024-02-21T08:26:16;98525.78;;;7.17;82.92
9423;BME280;65863;49.506;10.400;2024-02-21T08:29:00;98541.69;;;7.28;81.69
9423;BME280;65863;49.506;10.400;2024-02-21T08:31:44;98533.88;;;7.57;80.92
9423;BME280;65863;49.506;10.400;2024-02-21T08:34:29;98541.94;;;8.21;81.60
9423;BME280;65863;49.506;10.400;2024-02-21T08:37:16;98532.19;;;8.28;78.46
9423;BME280;65863;49.506;10.400;2024-02-21T08:40:00;98530.06;;;8.59;76.89
9423;BME280;65863;49.506;10.400;2024-02-21T08:42:53;98505.00;;;8.72;77.11
9423;BME280;65863;49.506;10.400;2024-02-21T08:45:37;98508.56;;;8.92;75.31
9423;BME280;65863;49.506;10.400;2024-02-21T08:48:21;98505.75;;;8.92;74.67
9423;BME280;65863;49.506;10.400;2024-02-21T08:51:05;98457.34;;;8.78;75.53
9423;BME280;65863;49.506;10.400;2024-02-21T08:53:50;98528.66;;;9.28;73.99
9423;BME280;65863;49.506;10.400;2024-02-21T08:56:35;98472.25;;;8.86;74.29
9423;BME280;65863;49.506;10.400;2024-02-21T08:59:19;98509.84;;;8.91;73.91
9423;BME280;65863;49.506;10.400;2024-02-21T09:02:04;98507.41;;;8.82;73.38
9423;BME280;65863;49.506;10.400;2024-02-21T09:04:48;98492.94;;;8.58;74.61
9423;BME280;65863;49.506;10.400;2024-02-21T09:07:33;98515.47;;;8.47;75.14
9423;BME280;65863;49.506;10.400;2024-02-21T09:10:17;98491.91;;;8.37;75.30
9423;BME280;65863;49.506;10.400;2024-02-21T09:13:03;98490.19;;;8.34;75.58
9423;BME280;65863;49.506;10.400;2024-02-21T09:15:47;98506.03;;;8.25;75.46
9423;BME280;65863;49.506;10.400;2024-02-21T09:18:32;98495.78;;;8.09;75.87
9423;BME280;65863;49.506;10.400;2024-02-21T09:21:16;98485.66;;;8.06;75.65
9423;BME280;65863;49.506;10.400;2024-02-21T09:24:02;98441.78;;;7.95;76.21
9423;BME280;65863;49.506;10.400;2024-02-21T09:26:46;98478.47;;;8.35;76.60
9423;BME280;65863;49.506;10.400;2024-02-21T09:29:32;98493.63;;;8.65;76.88
9423;BME280;65863;49.506;10.400;2024-02-21T09:32:21;98454.16;;;8.49;75.73
9423;BME280;65863;49.506;10.400;2024-02-21T09:35:06;98505.59;;;8.65;76.01
9423;BME280;65863;49.506;10.400;2024-02-21T09:37:50;98478.69;;;8.62;75.71
9423;BME280;65863;49.506;10.400;2024-02-21T09:40:34;98409.81;;;8.53;74.11
9423;BME280;65863;49.506;10.400;2024-02-21T09:43:25;98481.91;;;9.37;74.02
9423;BME280;65863;49.506;10.400;2024-02-21T09:46:14;98489.50;;;9.42;74.32
9423;BME280;65863;49.506;10.400;2024-02-21T09:49:29;98464.44;;;9.30;73.31
9423;BME280;65863;49.506;10.400;2024-02-21T09:52:15;98477.63;;;9.36;73.26
9423;BME280;65863;49.506;10.400;2024-02-21T09:55:00;98476.72;;;9.60;74.00
9423;BME280;65863;49.506;10.400;2024-02-21T09:57:45;98451.16;;;9.50;72.87
9423;BME280;65863;49.506;10.400;2024-02-21T10:00:29;98459.03;;;9.65;72.75
9423;BME280;65863;49.506;10.400;2024-02-21T10:03:13;98428.06;;;9.44;71.21
9423;BME280;65863;49.506;10.400;2024-02-21T10:05:59;98440.78;;;9.45;70.98
9423;BME280;65863;49.506;10.400;2024-02-21T10:08:52;98413.56;;;9.13;70.75
9423;BME280;65863;49.506;10.400;2024-02-21T10:11:36;98439.69;;;9.35;71.08
9423;BME280;65863;49.506;10.400;2024-02-21T10:14:21;98434.63;;;9.46;70.85
9423;BME280;65863;49.506;10.400;2024-02-21T10:17:05;98428.66;;;9.23;71.43
9423;BME280;65863;49.506;10.400;2024-02-21T10:19:53;98412.59;;;9.24;70.70
9423;BME280;65863;49.506;10.400;2024-02-21T10:22:38;98412.50;;;9.29;70.58
9423;BME280;65863;49.506;10.400;2024-02-21T10:25:23;98377.34;;;9.15;70.27
9423;BME280;65863;49.506;10.400;2024-02-21T10:28:07;98406.81;;;9.35;68.68
9423;BME280;65863;49.506;10.400;2024-02-21T10:30:54;98409.06;;;9.23;69.64
9423;BME280;65863;49.506;10.400;2024-02-21T10:33:38;98401.00;;;9.46;70.28
9423;BME280;65863;49.506;10.400;2024-02-21T10:36:23;98432.00;;;9.94;69.72
9423;BME280;65863;49.506;10.400;2024-02-21T10:39:08;98365.56;;;9.76;68.30
9423;BME280;65863;49.506;10.400;2024-02-21T10:41:56;98416.00;;;9.62;66.83
9423;BME280;65863;49.506;10.400;2024-02-21T10:44:44;98421.44;;;9.87;68.46
9423;BME280;65863;49.506;10.400;2024-02-21T10:47:31;98404.59;;;10.14;68.30
9423;BME280;65863;49.506;10.400;2024-02-21T10:50:16;98371.59;;;9.93;67.10
9423;BME280;65863;49.506;10.400;2024-02-21T10:53:23;98415.94;;;10.08;67.23
9423;BME280;65863;49.506;10.400;2024-02-21T10:56:33;98412.91;;;10.06;67.98
9423;BME280;65863;49.506;10.400;2024-02-21T10:59:19;98398.00;;;10.25;66.95
9423;BME280;65863;49.506;10.400;2024-02-21T11:02:04;98320.34;;;10.06;66.55
9423;BME280;65863;49.506;10.400;2024-02-21T11:04:48;98335.16;;;10.55;65.29
9423;BME280;65863;49.506;10.400;2024-02-21T11:07:36;98375.38;;;10.92;64.19
9423;BME280;65863;49.506;10.400;2024-02-21T11:10:27;98369.22;;;11.14;63.31
9423;BME280;65863;49.506;10.400;2024-02-21T11:13:11;98375.25;;;10.97;63.41
9423;BME280;65863;49.506;10.400;2024-02-21T11:16:05;98276.66;;;10.45;62.87
9423;BME280;65863;49.506;10.400;2024-02-21T11:18:50;98336.34;;;11.01;63.90
9423;BME280;65863;49.506;10.400;2024-02-21T11:21:36;98314.91;;;11.19;63.67
9423;BME280;65863;49.506;10.400;2024-02-21T11:27:18;98299.41;;;11.26;60.82
9423;BME280;65863;49.506;10.400;2024-02-21T11:30:05;98281.72;;;11.10;60.89
9423;BME280;65863;49.506;10.400;2024-02-21T11:32:50;98314.72;;;11.17;61.34
9423;BME280;65863;49.506;10.400;2024-02-21T11:35:36;98253.72;;;10.76;61.00
9423;BME280;65863;49.506;10.400;2024-02-21T11:38:22;98308.41;;;11.25;62.75
9423;BME280;65863;49.506;10.400;2024-02-21T11:41:08;98263.38;;;11.17;63.08
9423;BME280;65863;49.506;10.400;2024-02-21T11:43:54;98285.19;;;11.61;61.36
9423;BME280;65863;49.506;10.400;2024-02-21T11:46:39;98290.13;;;11.39;61.06
9423;BME280;65863;49.506;10.400;2024-02-21T11:49:30;98290.34;;;11.41;60.82
9423;BME280;65863;49.506;10.400;2024-02-21T11:52:15;98282.91;;;11.51;61.72
9423;BME280;65863;49.506;10.400;2024-02-21T11:55:00;98254.06;;;11.22;61.28
9423;BME280;65863;49.506;10.400;2024-02-21T11:57:48;98285.66;;;11.44;61.49
9423;BME280;65863;49.506;10.400;2024-02-21T12:00:32;98235.31;;;11.53;60.17
9423;BME280;65863;49.506;10.400;2024-02-21T12:03:17;98272.88;;;11.71;59.18
9423;BME280;65863;49.506;10.400;2024-02-21T12:06:02;98249.97;;;11.60;59.56
9423;BME280;65863;49.506;10.400;2024-02-21T12:08:48;98243.78;;;11.61;59.36
9423;BME280;65863;49.506;10.400;2024-02-21T12:11:32;98212.75;;;11.38;60.28
9423;BME280;65863;49.506;10.400;2024-02-21T12:14:18;98214.94;;;11.24;59.67
9423;BME280;65863;49.506;10.400;2024-02-21T12:17:02;98224.81;;;11.17;60.63
9423;BME280;65863;49.506;10.400;2024-02-21T12:19:50;98191.72;;;10.95;61.71
9423;BME280;65863;49.506;10.400;2024-02-21T12:22:38;98175.78;;;10.68;60.29
9423;BME280;65863;49.506;10.400;2024-02-21T12:25:24;98211.66;;;10.83;60.04
9423;BME280;65863;49.506;10.400;2024-02-21T12:28:11;98235.75;;;11.29;60.12
9423;BME280;65863;49.506;10.400;2024-02-21T12:30:57;98209.91;;;11.30;61.62
9423;BME280;65863;49.506;10.400;2024-02-21T12:33:41;98189.50;;;11.01;60.00
9423;BME280;65863;49.506;10.400;2024-02-21T12:36:25;98177.13;;;10.96;60.27
9423;BME280;65863;49.506;10.400;2024-02-21T12:39:12;98203.56;;;11.37;59.81
9423;BME280;65863;49.506;10.400;2024-02-21T12:41:59;98206.53;;;11.32;59.72
9423;BME280;65863;49.506;10.400;2024-02-21T12:44:45;98124.78;;;10.49;59.04
9423;BME280;65863;49.506;10.400;2024-02-21T12:47:29;98150.72;;;10.99;60.29
9423;BME280;65863;49.506;10.400;2024-02-21T12:50:15;98169.75;;;11.22;59.00
9423;BME280;65863;49.506;10.400;2024-02-21T12:53:11;98176.75;;;11.36;59.06
9423;BME280;65863;49.506;10.400;2024-02-21T12:55:56;98155.22;;;11.02;59.92
9423;BME280;65863;49.506;10.400;2024-02-21T12:58:41;98147.81;;;11.13;58.94
9423;BME280;65863;49.506;10.400;2024-02-21T13:01:26;98153.97;;;11.11;59.54
9423;BME280;65863;49.506;10.400;2024-02-21T13:04:12;98161.53;;;11.24;62.04
9423;BME280;65863;49.506;10.400;2024-02-21T13:06:56;98111.81;;;11.11;59.56
9423;BME280;65863;49.506;10.400;2024-02-21T13:09:40;98128.44;;;11.38;59.56
9423;BME280;65863;49.506;10.400;2024-02-21T13:12:28;98142.53;;;11.46;60.01
9423;BME280;65863;49.506;10.400;2024-02-21T13:15:14;98101.03;;;11.23;58.23
9423;BME280;65863;49.506;10.400;2024-02-21T13:18:00;98098.22;;;11.23;58.07
9423;BME280;65863;49.506;10.400;2024-02-21T13:20:43;98118.69;;;11.31;58.64
9423;BME280;65863;49.506;10.400;2024-02-21T13:23:27;98062.94;;;11.07;58.94
9423;BME280;65863;49.506;10.400;2024-02-21T13:26:11;98081.44;;;11.46;59.34
9423;BME280;65863;49.506;10.400;2024-02-21T13:28:56;98115.56;;;11.58;59.05
9423;BME280;65863;49.506;10.400;2024-02-21T13:31:40;98102.97;;;11.44;58.36
9423;BME280;65863;49.506;10.400;2024-02-21T13:34:29;98032.25;;;11.09;57.55
9423;BME280;65863;49.506;10.400;2024-02-21T13:37:13;98034.44;;;11.02;57.64
9423;BME280;65863;49.506;10.400;2024-02-21T13:39:58;98092.22;;;11.27;58.54
9423;BME280;65863;49.506;10.400;2024-02-21T13:42:43;98081.34;;;11.23;59.47
9423;BME280;65863;49.506;10.400;2024-02-21T13:45:29;98053.59;;;11.12;58.98
9423;BME280;65863;49.506;10.400;2024-02-21T13:48:14;98038.84;;;11.27;58.90
9423;BME280;65863;49.506;10.400;2024-02-21T13:50:58;98009.38;;;11.12;58.80
9423;BME280;65863;49.506;10.400;2024-02-21T13:53:43;98010.00;;;11.18;57.74
9423;BME280;65863;49.506;10.400;2024-02-21T13:56:28;98068.13;;;11.47;58.05
9423;BME280;65863;49.506;10.400;2024-02-21T13:59:12;98044.09;;;11.30;58.12
9423;BME280;65863;49.506;10.400;2024-02-21T14:02:00;98055.94;;;11.52;57.09
9423;BME280;65863;49.506;10.400;2024-02-21T14:04:44;98045.44;;;11.45;57.72
9423;BME280;65863;49.506;10.400;2024-02-21T14:07:28;98035.16;;;11.70;57.06
9423;BME280;65863;49.506;10.400;2024-02-21T14:10:12;97980.63;;;11.43;56.86
9423;BME280;65863;49.506;10.400;2024-02-21T14:12:56;98020.91;;;11.61;55.97
9423;BME280;65863;49.506;10.400;2024-02-21T14:15:43;98050.56;;;11.85;57.66
9423;BME280;65863;49.506;10.400;2024-02-21T14:18:29;98034.63;;;11.64;58.09
9423;BME280;65863;49.506;10.400;2024-02-21T14:21:13;98017.38;;;11.52;56.63
9423;BME280;65863;49.506;10.400;2024-02-21T14:23:57;98009.47;;;11.35;56.98
9423;BME280;65863;49.506;10.400;2024-02-21T14:26:42;97960.13;;;11.03;57.88
9423;BME280;65863;49.506;10.400;2024-02-21T14:29:27;97950.00;;;11.00;57.07
9423;BME280;65863;49.506;10.400;2024-02-21T14:32:12;98026.34;;;11.51;57.41
9423;BME280;65863;49.506;10.400;2024-02-21T14:34:59;97998.75;;;11.26;58.17
9423;BME280;65863;49.506;10.400;2024-02-21T14:37:43;97999.66;;;11.13;58.03
9423;BME280;65863;49.506;10.400;2024-02-21T14:40:27;97999.09;;;11.15;59.06
9423;BME280;65863;49.506;10.400;2024-02-21T14:43:15;97993.88;;;11.19;59.68
9423;BME280;65863;49.506;10.400;2024-02-21T14:45:59;97937.59;;;10.80;59.53